createdAt,value
2018-02-14T00:00:33.592Z,-0.70
2018-02-14T00:03:01.992Z,-0.70
2018-02-14T00:05:30.352Z,-0.70
2018-02-14T00:07:58.632Z,-0.70
2018-02-14T00:10:28.532Z,-0.70
2018-02-14T00:12:56.732Z,-0.70
2018-02-14T00:15:24.891Z,-0.70
2018-02-14T00:17:53.152Z,-0.70
2018-02-14T00:20:21.612Z,-0.70
2018-02-14T00:22:50.032Z,-0.70
2018-02-14T00:25:18.072Z,-0.80
2018-02-14T00:27:46.272Z,-0.80
2018-02-14T00:30:14.272Z,-0.80
2018-02-14T00:32:43.232Z,-0.80
2018-02-14T00:35:11.612Z,-0.80
2018-02-14T00:37:39.991Z,-0.80
2018-02-14T00:40:08.272Z,-0.80
2018-02-14T00:42:36.572Z,-0.90
2018-02-14T00:45:04.615Z,-0.90
2018-02-14T00:47:32.894Z,-0.90
2018-02-14T00:50:01.052Z,-0.90
2018-02-14T00:52:29.932Z,-0.90
2018-02-14T00:54:58.012Z,-0.90
2018-02-14T00:57:26.371Z,-0.90
2018-02-14T00:59:54.491Z,-1.00
2018-02-14T01:02:23.653Z,-1.00
2018-02-14T01:04:52.752Z,-1.00
2018-02-14T01:07:21.452Z,-1.00
2018-02-14T01:09:49.711Z,-1.00
2018-02-14T01:12:18.312Z,-1.00
2018-02-14T01:14:46.574Z,-1.00
2018-02-14T01:17:15.151Z,-1.10
2018-02-14T01:19:43.412Z,-1.20
2018-02-14T01:22:11.612Z,-1.10
2018-02-14T01:24:39.771Z,-1.10
2018-02-14T01:27:09.192Z,-1.20
2018-02-14T01:29:37.451Z,-1.20
2018-02-14T01:32:05.931Z,-1.20
2018-02-14T01:34:34.411Z,-1.30
2018-02-14T01:37:02.872Z,-1.30
2018-02-14T01:39:31.052Z,-1.30
2018-02-14T01:41:59.652Z,-1.30
2018-02-14T01:44:27.732Z,-1.30
2018-02-14T01:46:55.892Z,-1.40
2018-02-14T01:49:24.272Z,-1.40
2018-02-14T01:51:52.613Z,-1.40
2018-02-14T01:54:20.832Z,-1.50
2018-02-14T01:56:49.911Z,-1.50
2018-02-14T01:59:18.191Z,-1.50
2018-02-14T02:01:46.577Z,-1.50
2018-02-14T02:04:15.052Z,-1.50
2018-02-14T02:06:43.251Z,-1.60
2018-02-14T02:09:12.212Z,-1.60
2018-02-14T02:11:40.393Z,-1.60
2018-02-14T02:14:08.451Z,-1.60
2018-02-14T02:16:37.352Z,-1.50
2018-02-14T02:19:05.511Z,-1.50
2018-02-14T02:21:33.591Z,-1.50
2018-02-14T02:24:01.652Z,-1.50
2018-02-14T02:26:29.831Z,-1.40
2018-02-14T02:28:58.432Z,-1.30
2018-02-14T02:31:27.832Z,-1.30
2018-02-14T02:33:56.914Z,-1.30
2018-02-14T02:36:25.512Z,-1.30
2018-02-14T02:38:54.791Z,-1.30
2018-02-14T02:41:22.892Z,-1.30
2018-02-14T02:43:52.154Z,-1.20
2018-02-14T02:46:20.732Z,-1.20
2018-02-14T02:48:49.154Z,-1.10
2018-02-14T02:51:18.312Z,-1.20
2018-02-14T02:53:46.331Z,-1.20
2018-02-14T02:56:14.873Z,-1.10
2018-02-14T02:58:43.092Z,-1.20
2018-02-14T03:01:11.432Z,-1.20
2018-02-14T03:03:40.731Z,-1.20
2018-02-14T03:06:08.972Z,-1.30
2018-02-14T03:08:37.572Z,-1.30
2018-02-14T03:11:05.712Z,-1.20
2018-02-14T03:13:33.831Z,-1.20
2018-02-14T03:16:02.072Z,-1.20
2018-02-14T03:18:30.171Z,-1.30
2018-02-14T03:20:58.191Z,-1.20
2018-02-14T03:23:26.431Z,-1.20
2018-02-14T03:25:55.612Z,-1.30
2018-02-14T03:28:23.672Z,-1.30
2018-02-14T03:30:51.955Z,-1.40
2018-02-14T03:33:20.132Z,-1.30
2018-02-14T03:35:48.292Z,-1.40
2018-02-14T03:38:18.032Z,-1.60
2018-02-14T03:40:47.012Z,-1.70
2018-02-14T03:43:16.092Z,-1.70
2018-02-14T03:45:44.471Z,-1.70
2018-02-14T03:48:12.751Z,-1.70
2018-02-14T03:50:40.931Z,-1.80
2018-02-14T03:53:09.812Z,-2.00
2018-02-14T03:55:37.871Z,-2.00
2018-02-14T03:58:06.051Z,-2.10
2018-02-14T04:00:34.551Z,-2.10
2018-02-14T04:03:04.191Z,-2.10
2018-02-14T04:05:32.631Z,-2.10
2018-02-14T04:08:01.992Z,-2.10
2018-02-14T04:10:30.431Z,-2.10
2018-02-14T04:12:59.351Z,-2.10
2018-02-14T04:15:27.691Z,-2.20
2018-02-14T04:17:56.772Z,-2.10
2018-02-14T04:20:25.831Z,-2.10
2018-02-14T04:22:53.932Z,-2.10
2018-02-14T04:25:22.312Z,-2.10
2018-02-14T04:27:51.331Z,-2.10
2018-02-14T04:30:24.991Z,-2.10
2018-02-14T04:32:53.131Z,-2.10
2018-02-14T04:35:21.332Z,-2.20
2018-02-14T04:37:51.051Z,-2.20
2018-02-14T04:40:19.052Z,-2.20
2018-02-14T04:42:47.172Z,-2.20
2018-02-14T04:45:15.351Z,-2.20
2018-02-14T04:47:43.531Z,-2.20
2018-02-14T04:50:11.811Z,-2.20
2018-02-14T04:52:39.952Z,-2.20
2018-02-14T04:55:08.112Z,-2.30
2018-02-14T04:57:36.092Z,-2.30
2018-02-14T05:00:04.092Z,-2.40
2018-02-14T05:02:32.332Z,-2.40
2018-02-14T05:05:00.391Z,-2.40
2018-02-14T05:07:28.612Z,-2.40
2018-02-14T05:09:56.993Z,-2.40
2018-02-14T05:12:25.372Z,-2.50
2018-02-14T05:14:53.451Z,-2.50
2018-02-14T05:17:22.531Z,-2.50
2018-02-14T05:19:51.832Z,-2.50
2018-02-14T05:22:20.212Z,-2.50
2018-02-14T05:24:48.372Z,-2.60
2018-02-14T05:27:16.532Z,-2.60
2018-02-14T05:29:44.831Z,-2.70
2018-02-14T05:32:12.893Z,-2.70
2018-02-14T05:34:41.172Z,-2.70
2018-02-14T05:37:10.472Z,-2.70
2018-02-14T05:39:39.571Z,-2.70
2018-02-14T05:42:07.851Z,-2.70
2018-02-14T05:44:36.272Z,-2.70
2018-02-14T05:47:04.932Z,-2.70
2018-02-14T05:49:34.092Z,-2.70
2018-02-14T05:52:02.692Z,-2.70
2018-02-14T05:54:30.952Z,-2.70
2018-02-14T05:56:59.232Z,-2.70
2018-02-14T05:59:28.111Z,-2.70
2018-02-14T06:01:56.452Z,-2.70
2018-02-14T06:04:24.707Z,-2.70
2018-02-14T06:06:52.932Z,-2.70
2018-02-14T06:09:21.312Z,-2.70
2018-02-14T06:11:49.452Z,-2.70
2018-02-14T06:14:17.871Z,-2.80
2018-02-14T06:16:46.973Z,-2.80
2018-02-14T06:19:15.135Z,-2.80
2018-02-14T06:21:43.472Z,-2.80
2018-02-14T06:24:11.672Z,-2.80
2018-02-14T06:26:39.851Z,-2.80
2018-02-14T06:29:07.852Z,-2.70
2018-02-14T06:31:36.832Z,-2.70
2018-02-14T06:34:04.992Z,-2.80
2018-02-14T06:36:33.272Z,-2.80
2018-02-14T06:39:03.094Z,-2.80
2018-02-14T06:41:31.372Z,-2.80
2018-02-14T06:43:59.532Z,-2.80
2018-02-14T06:46:28.631Z,-2.80
2018-02-14T06:48:57.833Z,-2.80
2018-02-14T06:51:25.994Z,-2.80
2018-02-14T06:53:54.292Z,-2.70
2018-02-14T06:56:23.492Z,-2.70
2018-02-14T06:58:52.518Z,-2.70
2018-02-14T07:01:20.631Z,-2.80
2018-02-14T07:03:48.913Z,-2.70
2018-02-14T07:06:16.991Z,-2.80
2018-02-14T07:08:45.091Z,-2.80
2018-02-14T07:11:13.431Z,-2.70
2018-02-14T07:13:42.052Z,-2.70
2018-02-14T07:16:10.491Z,-2.70
2018-02-14T07:18:39.832Z,-2.70
2018-02-14T07:21:08.352Z,-2.80
2018-02-14T07:23:36.753Z,-2.70
2018-02-14T07:26:05.332Z,-2.70
2018-02-14T07:28:33.772Z,-2.70
2018-02-14T07:31:02.332Z,-2.70
2018-02-14T07:33:30.752Z,-2.70
2018-02-14T07:35:59.351Z,-2.70
2018-02-14T07:38:29.271Z,-2.60
2018-02-14T07:40:58.452Z,-2.60
2018-02-14T07:43:26.774Z,-2.60
2018-02-14T07:45:55.132Z,-2.50
2018-02-14T07:48:24.112Z,-2.30
2018-02-14T07:50:53.912Z,-2.20
2018-02-14T07:53:23.032Z,-2.10
2018-02-14T07:55:52.134Z,-2.10
2018-02-14T07:58:21.412Z,-2.00
2018-02-14T08:00:49.792Z,-2.00
2018-02-14T08:03:18.072Z,-1.90
2018-02-14T08:05:47.972Z,-1.90
2018-02-14T08:08:16.253Z,-1.90
2018-02-14T08:10:44.434Z,-1.80
2018-02-14T08:13:12.792Z,-1.80
2018-02-14T08:15:41.072Z,-1.70
2018-02-14T08:18:09.559Z,-1.60
2018-02-14T08:20:37.953Z,-1.60
2018-02-14T08:23:06.431Z,-1.50
2018-02-14T08:25:35.720Z,-1.30
2018-02-14T08:28:03.872Z,-1.30
2018-02-14T08:30:32.873Z,-1.10
2018-02-14T08:33:01.892Z,-1.00
2018-02-14T08:35:30.872Z,-0.90
2018-02-14T08:37:59.232Z,-0.90
2018-02-14T08:40:27.412Z,-0.80
2018-02-14T08:42:55.813Z,-0.80
2018-02-14T08:45:25.192Z,-0.70
2018-02-14T08:47:53.712Z,-0.70
2018-02-14T08:50:21.951Z,-0.70
2018-02-14T08:52:50.332Z,-0.60
2018-02-14T08:55:18.915Z,-0.60
2018-02-14T08:57:47.292Z,-0.40
2018-02-14T09:00:15.672Z,-0.30
2018-02-14T09:02:44.152Z,-0.20
2018-02-14T09:05:12.536Z,0.00
2018-02-14T09:07:42.375Z,0.10
2018-02-14T09:10:10.912Z,0.10
2018-02-14T09:12:39.272Z,0.30
2018-02-14T09:15:07.871Z,0.30
2018-02-14T09:17:36.331Z,0.20
2018-02-14T09:20:04.834Z,0.20
2018-02-14T09:22:33.072Z,0.30
2018-02-14T09:25:01.179Z,0.40
2018-02-14T09:27:29.451Z,0.60
2018-02-14T09:29:57.731Z,0.70
2018-02-14T09:32:25.871Z,0.80
2018-02-14T09:34:53.971Z,0.90
2018-02-14T09:37:22.051Z,1.00
2018-02-14T09:39:50.211Z,1.10
2018-02-14T09:42:18.891Z,1.10
2018-02-14T09:44:47.291Z,1.20
2018-02-14T09:47:15.692Z,1.20
2018-02-14T09:49:44.952Z,1.40
2018-02-14T09:52:13.231Z,1.40
2018-02-14T09:54:41.711Z,1.60
2018-02-14T09:57:10.092Z,1.60
2018-02-14T09:59:38.374Z,1.70
2018-02-14T10:02:06.751Z,1.80
2018-02-14T10:04:34.919Z,1.80
2018-02-14T10:07:03.116Z,2.00
2018-02-14T10:09:32.332Z,2.30
2018-02-14T10:12:00.990Z,2.30
2018-02-14T10:14:30.380Z,2.60
2018-02-14T10:16:58.711Z,2.60
2018-02-14T10:19:27.232Z,2.60
2018-02-14T10:21:55.759Z,2.70
2018-02-14T10:24:24.081Z,2.80
2018-02-14T10:26:52.993Z,2.80
2018-02-14T10:29:22.074Z,3.00
2018-02-14T10:31:50.312Z,3.00
2018-02-14T10:34:18.591Z,3.20
2018-02-14T10:36:46.791Z,3.20
2018-02-14T10:39:15.172Z,3.20
2018-02-14T10:41:43.552Z,3.40
2018-02-14T10:44:11.992Z,3.50
2018-02-14T10:46:40.312Z,3.60
2018-02-14T10:49:09.451Z,3.90
2018-02-14T10:51:37.771Z,3.90
2018-02-14T10:54:06.172Z,4.10
2018-02-14T10:56:35.252Z,4.40
2018-02-14T10:59:03.432Z,4.40
2018-02-14T11:01:37.192Z,4.60
2018-02-14T11:04:11.133Z,4.90
2018-02-14T11:06:39.511Z,5.40
2018-02-14T11:09:07.891Z,5.70
2018-02-14T11:11:36.172Z,5.90
2018-02-14T11:14:04.351Z,6.10
2018-02-14T11:16:33.432Z,6.40
2018-02-14T11:19:01.672Z,6.40
2018-02-14T11:21:29.772Z,6.40
2018-02-14T11:23:57.932Z,6.10
2018-02-14T11:26:26.439Z,6.10
2018-02-14T11:28:54.611Z,6.20
2018-02-14T11:31:23.112Z,6.50
2018-02-14T11:33:52.372Z,6.80
2018-02-14T11:36:20.939Z,6.70
2018-02-14T11:38:49.351Z,6.90
2018-02-14T11:41:18.531Z,7.10
2018-02-14T11:43:47.092Z,7.10
2018-02-14T11:46:15.612Z,7.20
2018-02-14T11:48:44.391Z,7.10
2018-02-14T11:51:12.971Z,7.20
2018-02-14T11:53:41.351Z,7.40
2018-02-14T11:56:09.631Z,7.50
2018-02-14T11:58:38.054Z,7.50
2018-02-14T12:01:06.285Z,7.90
2018-02-14T12:03:34.551Z,8.00
2018-02-14T12:06:02.631Z,7.90
2018-02-14T12:08:31.111Z,8.00
2018-02-14T12:11:01.012Z,7.90
2018-02-14T12:13:29.611Z,7.90
2018-02-14T12:15:58.152Z,8.50
2018-02-14T12:18:26.352Z,8.80
2018-02-14T12:20:54.631Z,9.30
2018-02-14T12:23:23.072Z,9.40
2018-02-14T12:25:51.272Z,9.40
2018-02-14T12:28:19.292Z,9.00
2018-02-14T12:30:48.573Z,8.30
2018-02-14T12:33:17.452Z,7.90
2018-02-14T12:35:45.499Z,7.90
2018-02-14T12:38:13.691Z,7.50
2018-02-14T12:40:41.751Z,7.30
2018-02-14T12:43:10.032Z,7.10
2018-02-14T12:45:38.311Z,6.90
2018-02-14T12:48:06.712Z,6.60
2018-02-14T12:50:35.872Z,5.80
2018-02-14T12:53:04.371Z,5.80
2018-02-14T12:55:32.852Z,5.60
2018-02-14T12:58:01.127Z,5.40
2018-02-14T13:00:29.196Z,5.20
2018-02-14T13:02:57.373Z,5.00
2018-02-14T13:05:25.893Z,4.80
2018-02-14T13:07:54.334Z,4.60
2018-02-14T13:10:23.533Z,4.50
2018-02-14T13:12:52.932Z,4.40
2018-02-14T13:15:21.893Z,4.30
2018-02-14T13:17:50.231Z,4.20
2018-02-14T13:20:18.657Z,4.30
2018-02-14T13:22:47.155Z,4.40
2018-02-14T13:25:16.655Z,4.60
2018-02-14T13:27:45.836Z,4.50
2018-02-14T13:30:14.155Z,4.60
2018-02-14T13:32:43.536Z,4.40
2018-02-14T13:35:12.616Z,4.40
2018-02-14T13:37:41.577Z,4.40
2018-02-14T13:40:09.717Z,4.40
2018-02-14T13:42:38.675Z,4.50
2018-02-14T13:45:06.816Z,4.50
2018-02-14T13:47:35.537Z,4.50
2018-02-14T13:50:03.846Z,4.40
2018-02-14T13:52:32.135Z,4.40
2018-02-14T13:55:00.677Z,4.40
2018-02-14T13:57:28.797Z,4.20
2018-02-14T13:59:57.037Z,4.10
2018-02-14T14:02:25.996Z,4.10
2018-02-14T14:04:54.955Z,4.10
2018-02-14T14:07:23.476Z,4.20
2018-02-14T14:09:51.655Z,4.10
2018-02-14T14:12:19.735Z,4.10
2018-02-14T14:14:48.177Z,4.00
2018-02-14T14:17:16.376Z,4.00
2018-02-14T14:19:44.556Z,4.10
2018-02-14T14:22:12.816Z,4.20
2018-02-14T14:24:41.616Z,4.30
2018-02-14T14:27:09.676Z,4.30
2018-02-14T14:29:38.096Z,4.20
2018-02-14T14:32:06.249Z,4.30
2018-02-14T14:34:35.396Z,4.30
2018-02-14T14:37:04.116Z,4.30
2018-02-14T14:39:32.138Z,4.40
2018-02-14T14:42:00.576Z,4.40
2018-02-14T14:44:29.756Z,4.30
2018-02-14T14:46:58.236Z,4.30
2018-02-14T14:49:26.356Z,4.20
2018-02-14T14:51:54.896Z,4.30
2018-02-14T14:54:24.515Z,4.40
2018-02-14T14:56:53.696Z,4.40
2018-02-14T14:59:21.856Z,4.40
2018-02-14T15:01:50.036Z,4.40
2018-02-14T15:04:19.116Z,4.50
2018-02-14T15:06:47.216Z,4.50
2018-02-14T15:09:15.436Z,4.50
2018-02-14T15:11:43.657Z,4.50
2018-02-14T15:14:11.716Z,4.50
2018-02-14T15:16:39.995Z,4.60
2018-02-14T15:19:08.996Z,4.60
2018-02-14T15:21:37.055Z,4.60
2018-02-14T15:24:05.536Z,4.70
2018-02-14T15:26:33.815Z,4.70
2018-02-14T15:29:02.197Z,4.60
2018-02-14T15:31:30.362Z,4.70
2018-02-14T15:33:58.536Z,4.70
2018-02-14T15:36:27.657Z,4.80
2018-02-14T15:38:56.735Z,4.80
2018-02-14T15:41:25.216Z,4.80
2018-02-14T15:43:53.796Z,4.70
2018-02-14T15:46:22.137Z,4.70
2018-02-14T15:48:50.735Z,4.80
2018-02-14T15:51:18.976Z,4.80
2018-02-14T15:53:47.420Z,4.80
2018-02-14T15:56:15.895Z,4.80
2018-02-14T15:58:44.175Z,4.80
2018-02-14T16:01:13.356Z,4.80
2018-02-14T16:03:41.409Z,4.80
2018-02-14T16:06:09.579Z,4.80
2018-02-14T16:08:37.975Z,4.90
2018-02-14T16:11:06.576Z,4.90
2018-02-14T16:13:35.616Z,4.90
2018-02-14T16:16:03.736Z,4.90
2018-02-14T16:18:32.216Z,4.90
2018-02-14T16:21:01.415Z,4.90
2018-02-14T16:23:30.503Z,4.80
2018-02-14T16:25:58.774Z,4.80
2018-02-14T16:28:26.956Z,4.70
2018-02-14T16:30:56.156Z,4.40
2018-02-14T16:33:24.316Z,4.40
2018-02-14T16:35:52.796Z,4.40
2018-02-14T16:38:21.075Z,4.40
2018-02-14T16:40:49.856Z,4.30
2018-02-14T16:43:18.135Z,4.30
2018-02-14T16:45:46.515Z,4.30
2018-02-14T16:48:14.876Z,4.30
2018-02-14T16:50:43.275Z,4.30
2018-02-14T16:53:11.935Z,4.30
2018-02-14T16:55:40.418Z,4.20
2018-02-14T16:58:09.035Z,4.10
2018-02-14T17:00:38.116Z,4.00
2018-02-14T17:03:06.215Z,4.00
2018-02-14T17:05:35.379Z,4.00
2018-02-14T17:08:03.974Z,4.00
2018-02-14T17:10:33.054Z,4.10
2018-02-14T17:13:01.635Z,4.00
2018-02-14T17:15:29.835Z,4.10
2018-02-14T17:17:58.655Z,4.00
2018-02-14T17:20:26.856Z,4.00
2018-02-14T17:22:55.255Z,3.90
2018-02-14T17:25:23.434Z,3.90
2018-02-14T17:27:51.594Z,3.80
2018-02-14T17:30:19.676Z,3.80
2018-02-14T17:32:47.815Z,3.80
2018-02-14T17:35:16.324Z,3.80
2018-02-14T17:37:44.695Z,3.80
2018-02-14T17:40:13.136Z,3.70
2018-02-14T17:42:41.356Z,3.70
2018-02-14T17:45:09.416Z,3.60
2018-02-14T17:47:37.715Z,3.50
2018-02-14T17:50:06.695Z,3.50
2018-02-14T17:52:34.755Z,3.50
2018-02-14T17:55:03.075Z,3.50
2018-02-14T17:57:31.576Z,3.40
2018-02-14T17:59:59.995Z,3.40
2018-02-14T18:02:29.714Z,3.20
2018-02-14T18:04:58.095Z,3.20
2018-02-14T18:07:27.295Z,3.20
2018-02-14T18:09:56.599Z,3.20
2018-02-14T18:12:28.395Z,3.10
2018-02-14T18:14:56.915Z,3.10
2018-02-14T18:17:25.394Z,3.00
2018-02-14T18:19:53.734Z,2.90
2018-02-14T18:22:22.035Z,2.90
2018-02-14T18:24:50.437Z,2.90
2018-02-14T18:27:18.755Z,3.00
2018-02-14T18:29:47.295Z,3.00
2018-02-14T18:32:15.655Z,2.90
2018-02-14T18:34:43.835Z,2.80
2018-02-14T18:37:12.395Z,2.70
2018-02-14T18:39:40.582Z,2.70
2018-02-14T18:42:08.796Z,2.80
2018-02-14T18:44:37.957Z,2.60
2018-02-14T18:47:06.257Z,2.60
2018-02-14T18:49:35.391Z,2.60
2018-02-14T18:52:03.618Z,2.50
2018-02-14T18:54:31.994Z,2.60
2018-02-14T18:57:01.895Z,2.60
2018-02-14T18:59:30.275Z,2.60
2018-02-14T19:01:59.995Z,2.50
2018-02-14T19:04:29.175Z,2.50
2018-02-14T19:06:57.595Z,2.60
2018-02-14T19:09:26.136Z,2.50
2018-02-14T19:11:54.534Z,2.50
2018-02-14T19:14:22.915Z,2.40
2018-02-14T19:16:52.095Z,2.40
2018-02-14T19:19:20.335Z,2.30
2018-02-14T19:21:48.576Z,2.40
2018-02-14T19:24:17.675Z,2.20
2018-02-14T19:26:45.835Z,2.20
2018-02-14T19:29:14.956Z,2.20
2018-02-14T19:31:43.495Z,2.20
2018-02-14T19:34:11.774Z,2.20
2018-02-14T19:36:40.855Z,2.10
2018-02-14T19:39:09.235Z,2.10
2018-02-14T19:41:37.516Z,2.10
2018-02-14T19:44:05.676Z,2.10
2018-02-14T19:46:33.836Z,2.10
2018-02-14T19:49:02.135Z,2.10
2018-02-14T19:51:30.914Z,2.10
2018-02-14T19:53:59.196Z,2.10
2018-02-14T19:56:27.475Z,2.10
2018-02-14T19:58:55.755Z,2.10
2018-02-14T20:01:24.155Z,2.00
2018-02-14T20:03:53.094Z,1.90
2018-02-14T20:06:21.174Z,1.90
2018-02-14T20:08:49.356Z,1.90
2018-02-14T20:11:17.556Z,1.90
2018-02-14T20:13:46.520Z,2.00
2018-02-14T20:16:15.515Z,1.90
2018-02-14T20:18:43.795Z,1.90
2018-02-14T20:21:12.176Z,1.80
2018-02-14T20:23:40.995Z,1.80
2018-02-14T20:26:09.116Z,1.80
2018-02-14T20:28:37.538Z,1.80
2018-02-14T20:31:06.816Z,1.80
2018-02-14T20:33:35.035Z,1.80
2018-02-14T20:36:03.475Z,1.80
2018-02-14T20:38:32.854Z,1.80
2018-02-14T20:41:01.034Z,1.80
2018-02-14T20:43:29.234Z,1.70
2018-02-14T20:45:58.315Z,1.70
2018-02-14T20:48:26.396Z,1.70
2018-02-14T20:50:55.675Z,1.60
2018-02-14T20:53:23.835Z,1.60
2018-02-14T20:55:52.234Z,1.70
2018-02-14T20:58:20.616Z,1.60
2018-02-14T21:00:49.896Z,1.50
2018-02-14T21:03:18.096Z,1.50
2018-02-14T21:05:47.155Z,1.50
2018-02-14T21:08:15.556Z,1.50
2018-02-14T21:10:44.056Z,1.50
2018-02-14T21:13:13.136Z,1.30
2018-02-14T21:15:42.116Z,1.40
2018-02-14T21:18:10.297Z,1.40
2018-02-14T21:20:38.456Z,1.30
2018-02-14T21:23:06.536Z,1.40
2018-02-14T21:25:34.914Z,1.40
2018-02-14T21:28:03.174Z,1.30
2018-02-14T21:30:31.455Z,1.30
2018-02-14T21:33:00.037Z,1.30
2018-02-14T21:35:29.236Z,1.30
2018-02-14T21:37:57.712Z,1.20
2018-02-14T21:40:25.950Z,1.20
2018-02-14T21:42:54.372Z,1.10
2018-02-14T21:45:22.630Z,1.10
2018-02-14T21:47:50.730Z,1.10
2018-02-14T21:50:19.556Z,1.00
2018-02-14T21:52:47.651Z,1.00
2018-02-14T21:55:16.271Z,0.90
2018-02-14T21:57:44.431Z,1.00
2018-02-14T22:00:12.831Z,1.10
2018-02-14T22:02:41.910Z,1.20
2018-02-14T22:05:10.071Z,1.20
2018-02-14T22:07:38.250Z,1.40
2018-02-14T22:10:06.210Z,1.40
2018-02-14T22:12:34.290Z,1.40
2018-02-14T22:15:02.672Z,1.40
2018-02-14T22:17:31.050Z,1.40
2018-02-14T22:19:59.551Z,1.40
2018-02-14T22:22:28.931Z,1.50
2018-02-14T22:24:57.271Z,1.50
2018-02-14T22:27:25.692Z,1.60
2018-02-14T22:29:54.791Z,1.60
2018-02-14T22:32:23.711Z,1.50
2018-02-14T22:34:52.250Z,1.50
2018-02-14T22:37:20.530Z,1.60
2018-02-14T22:39:48.890Z,1.50
2018-02-14T22:42:17.151Z,1.40
2018-02-14T22:44:45.551Z,1.50
2018-02-14T22:47:13.932Z,1.50
2018-02-14T22:49:42.111Z,1.50
2018-02-14T22:52:10.391Z,1.50
2018-02-14T22:54:39.570Z,1.30
2018-02-14T22:57:08.672Z,1.40
2018-02-14T22:59:36.950Z,1.30
2018-02-14T23:02:05.111Z,1.40
2018-02-14T23:04:33.390Z,1.30
2018-02-14T23:07:01.673Z,1.40
2018-02-14T23:09:29.831Z,1.40
2018-02-14T23:11:58.110Z,1.30
2018-02-14T23:14:26.395Z,1.20
2018-02-14T23:16:54.571Z,1.20
2018-02-14T23:19:22.850Z,1.20
2018-02-14T23:21:51.775Z,1.20
2018-02-14T23:24:20.011Z,1.20
2018-02-14T23:26:48.091Z,1.20
2018-02-14T23:29:17.270Z,1.10
2018-02-14T23:31:47.190Z,1.10
2018-02-14T23:34:15.359Z,1.00
2018-02-14T23:36:43.641Z,1.10
2018-02-14T23:39:12.051Z,1.10
2018-02-14T23:41:40.391Z,1.10
2018-02-14T23:44:08.670Z,1.10
2018-02-14T23:46:37.058Z,1.10
2018-02-14T23:49:06.051Z,1.10
2018-02-14T23:51:35.350Z,1.00
2018-02-14T23:54:04.631Z,0.90
2018-02-14T23:56:33.050Z,0.90
2018-02-14T23:59:01.390Z,0.90
